Time;durP1;ratioP1;P1;durP2;ratioP2;P2;SDS_P1;SDS_P2;PMS_P1;PMS_P2;Temp;Humidity;BMP_temperature;BMP_pressure;BME280_temperature;BME280_humidity;BME280_pressure;Samples;Min_cycle;Max_cycle;Signal;HPM_P1;HPM_P2
2021/04/22 00:36:24;;;;;;;22.62;5.22;;;;;;;;;;4107372;34;20107;-66
2021/04/22 00:39:01;;;;;;;24.33;5.43;;;;;;;;;;4098523;34;20203;-66
2021/04/22 00:41:31;;;;;;;20.15;4.82;;;;;;;;;;4110967;34;20135;-67
2021/04/22 00:44:08;;;;;;;32.22;5.30;;;;;;;;;;4110317;34;20460;-67
2021/04/22 00:46:42;;;;;;;26.20;4.97;;;;;;;;;;4109897;34;20540;-66
2021/04/22 00:49:10;;;;;;;36.17;6.78;;;;;;;;;;4098412;34;20111;-66
2021/04/22 00:51:38;;;;;;;34.65;5.60;;;;;;;;;;4108219;34;20115;-63
2021/04/22 00:54:06;;;;;;;31.92;6.05;;;;;;;;;;4109278;34;20209;-66
2021/04/22 00:56:35;;;;;;;41.08;6.12;;;;;;;;;;4096571;34;20116;-67
2021/04/22 00:59:07;;;;;;;47.80;7.93;;;;;;;;;;4110601;34;20116;-66
2021/04/22 01:01:39;;;;;;;57.05;9.57;;;;;;;;;;4109142;34;20135;-66
2021/04/22 01:04:07;;;;;;;62.17;10.90;;;;;;;;;;4098152;34;20530;-66
2021/04/22 01:06:35;;;;;;;51.45;9.40;;;;;;;;;;4111178;34;20120;-67
2021/04/22 01:09:14;;;;;;;65.30;10.23;;;;;;;;;;4110804;34;20100;-67
2021/04/22 01:11:44;;;;;;;66.57;13.05;;;;;;;;;;4100565;34;20131;-64
2021/04/22 01:14:13;;;;;;;59.35;11.27;;;;;;;;;;4111550;34;20448;-67
2021/04/22 01:16:41;;;;;;;67.87;11.80;;;;;;;;;;4098992;34;20547;-66
2021/04/22 01:19:15;;;;;;;67.45;12.35;;;;;;;;;;4111992;34;20120;-68
2021/04/22 01:21:45;;;;;;;62.70;9.60;;;;;;;;;;4110982;34;20108;-68
2021/04/22 01:24:14;;;;;;;58.25;10.15;;;;;;;;;;4112101;34;20103;-63
2021/04/22 01:26:41;;;;;;;48.90;9.32;;;;;;;;;;4110765;34;20594;-66
2021/04/22 01:29:09;;;;;;;62.92;10.15;;;;;;;;;;4110540;34;20216;-66
2021/04/22 01:31:35;;;;;;;79.87;14.35;;;;;;;;;;4112080;34;20532;-68
2021/04/22 01:34:09;;;;;;;72.60;12.13;;;;;;;;;;4114162;34;20112;-67
2021/04/22 01:36:39;;;;;;;84.82;12.52;;;;;;;;;;4123978;34;20127;-68
2021/04/22 01:39:07;;;;;;;80.97;12.37;;;;;;;;;;4134652;34;20468;-66
2021/04/22 01:41:35;;;;;;;81.22;12.85;;;;;;;;;;4125242;34;20205;-63
2021/04/22 01:44:02;;;;;;;79.78;13.73;;;;;;;;;;4125333;34;20107;-67
2021/04/22 01:46:29;;;;;;;81.00;14.68;;;;;;;;;;4125214;34;20511;-66
2021/04/22 01:48:56;;;;;;;83.18;13.68;;;;;;;;;;4125485;34;20220;-67
2021/04/22 01:51:22;;;;;;;87.18;14.55;;;;;;;;;;4124930;34;20204;-64
2021/04/22 01:53:49;;;;;;;84.05;13.05;;;;;;;;;;4125279;34;20096;-64
2021/04/22 01:56:16;;;;;;;72.97;13.90;;;;;;;;;;4123593;34;20506;-69
2021/04/22 01:58:42;;;;;;;79.55;12.50;;;;;;;;;;4125110;34;20132;-67
2021/04/22 02:01:08;;;;;;;86.37;12.15;;;;;;;;;;4134556;34;20095;-67
2021/04/22 02:03:35;;;;;;;94.68;15.02;;;;;;;;;;4134416;34;20127;-69
2021/04/22 02:06:01;;;;;;;92.20;14.98;;;;;;;;;;4125073;34;20119;-67
2021/04/22 02:08:27;;;;;;;97.93;15.10;;;;;;;;;;4125014;34;20120;-67
2021/04/22 02:10:53;;;;;;;93.97;15.80;;;;;;;;;;4124832;34;20531;-66
2021/04/22 02:13:20;;;;;;;124.75;17.77;;;;;;;;;;4123440;34;20111;-63
2021/04/22 02:15:49;;;;;;;121.00;16.62;;;;;;;;;;4134140;34;20115;-64
2021/04/22 02:18:16;;;;;;;119.57;18.58;;;;;;;;;;4134504;34;20124;-67
2021/04/22 02:20:42;;;;;;;136.18;18.62;;;;;;;;;;4125121;34;20500;-67
2021/04/22 02:23:11;;;;;;;141.18;17.33;;;;;;;;;;4123685;34;20467;-67
2021/04/22 02:25:37;;;;;;;145.10;18.98;;;;;;;;;;4123036;34;20099;-66
2021/04/22 02:28:06;;;;;;;139.93;19.80;;;;;;;;;;4123438;34;20126;-69
2021/04/22 02:30:36;;;;;;;136.45;18.55;;;;;;;;;;4123612;34;20108;-70
2021/04/22 02:33:05;;;;;;;117.75;16.95;;;;;;;;;;4124500;34;20199;-66
2021/04/22 02:35:34;;;;;;;120.45;17.75;;;;;;;;;;4134282;34;20532;-69
2021/04/22 02:38:03;;;;;;;113.93;15.27;;;;;;;;;;4125211;34;20092;-70
2021/04/22 02:40:30;;;;;;;104.47;16.62;;;;;;;;;;4123693;34;20119;-70
2021/04/22 02:42:58;;;;;;;118.80;17.35;;;;;;;;;;4124710;34;20107;-70
2021/04/22 02:45:32;;;;;;;108.55;17.67;;;;;;;;;;4124712;34;20115;-67
2021/04/22 02:48:00;;;;;;;119.75;16.00;;;;;;;;;;4123614;34;20103;-66
2021/04/22 02:50:31;;;;;;;149.15;19.55;;;;;;;;;;4123135;34;20423;-69
2021/04/22 02:53:00;;;;;;;142.73;21.90;;;;;;;;;;4123303;34;20440;-69
2021/04/22 02:55:27;;;;;;;165.85;24.35;;;;;;;;;;4122970;34;20088;-68
2021/04/22 02:57:55;;;;;;;158.23;22.42;;;;;;;;;;4123330;34;20111;-64
2021/04/22 03:00:23;;;;;;;143.68;21.15;;;;;;;;;;4123289;34;20130;-67
2021/04/22 03:02:50;;;;;;;147.35;18.75;;;;;;;;;;4119063;34;20240;-67
2021/04/22 03:05:22;;;;;;;168.77;23.17;;;;;;;;;;4124688;34;20468;-69
2021/04/22 03:07:49;;;;;;;154.48;23.55;;;;;;;;;;4123256;34;20633;-64
2021/04/22 03:10:21;;;;;;;167.85;23.90;;;;;;;;;;4123243;34;20087;-66
2021/04/22 03:12:52;;;;;;;150.90;22.23;;;;;;;;;;4112557;34;20096;-67
2021/04/22 03:15:24;;;;;;;123.87;20.88;;;;;;;;;;4124856;34;20529;-66
2021/04/22 03:17:53;;;;;;;138.75;18.95;;;;;;;;;;4123901;34;20122;-66
2021/04/22 03:20:32;;;;;;;130.65;20.35;;;;;;;;;;4123057;34;20503;-65
2021/04/22 03:23:09;;;;;;;134.73;18.40;;;;;;;;;;4121961;34;20200;-62
2021/04/22 03:25:47;;;;;;;136.75;22.62;;;;;;;;;;4124317;34;20092;-66
2021/04/22 03:28:36;;;;;;;109.10;18.92;;;;;;;;;;4124061;34;20096;-62
2021/04/22 03:31:06;;;;;;;132.68;17.92;;;;;;;;;;4124621;34;20194;-66
2021/04/22 03:33:39;;;;;;;152.62;22.17;;;;;;;;;;4124361;34;20569;-65
2021/04/22 03:36:06;;;;;;;123.03;18.20;;;;;;;;;;4124746;34;20433;-68
2021/04/22 03:38:38;;;;;;;145.87;19.80;;;;;;;;;;4124730;34;20118;-65
2021/04/22 03:41:04;;;;;;;111.00;16.77;;;;;;;;;;4133908;34;20530;-66
2021/04/22 03:43:31;;;;;;;109.63;17.67;;;;;;;;;;4111546;34;20104;-66
2021/04/22 03:45:57;;;;;;;97.85;16.02;;;;;;;;;;4133909;34;20229;-63
2021/04/22 03:48:23;;;;;;;125.90;16.45;;;;;;;;;;4124045;34;20120;-67
2021/04/22 03:50:50;;;;;;;108.10;19.37;;;;;;;;;;4130591;34;20134;-63
2021/04/22 03:53:16;;;;;;;108.78;17.10;;;;;;;;;;4137330;34;20129;-68
2021/04/22 03:55:42;;;;;;;113.35;18.27;;;;;;;;;;4137444;34;20139;-66
2021/04/22 03:58:12;;;;;;;127.50;17.70;;;;;;;;;;4137930;34;20130;-63
2021/04/22 04:00:54;;;;;;;114.12;19.45;;;;;;;;;;4113199;34;20111;-66
2021/04/22 04:03:33;;;;;;;110.22;14.55;;;;;;;;;;4124697;34;20131;-63
2021/04/22 04:06:03;;;;;;;128.32;18.27;;;;;;;;;;4127872;34;20096;-64
2021/04/22 04:08:34;;;;;;;118.53;18.58;;;;;;;;;;4137912;34;20112;-67
2021/04/22 04:11:05;;;;;;;125.68;20.52;;;;;;;;;;4137136;34;20087;-63
2021/04/22 04:13:38;;;;;;;137.85;18.90;;;;;;;;;;4137036;34;20102;-67
2021/04/22 04:16:07;;;;;;;142.40;17.67;;;;;;;;;;4137371;34;20195;-66
2021/04/22 04:18:39;;;;;;;129.05;17.65;;;;;;;;;;4137561;34;20485;-63
2021/04/22 04:21:15;;;;;;;122.65;16.45;;;;;;;;;;4137853;34;20527;-66
2021/04/22 04:23:51;;;;;;;98.53;14.85;;;;;;;;;;4136097;34;20122;-67
2021/04/22 04:26:26;;;;;;;100.70;12.95;;;;;;;;;;4125625;34;20583;-67
2021/04/22 04:28:53;;;;;;;104.57;13.13;;;;;;;;;;4137974;34;20126;-65
2021/04/22 04:31:22;;;;;;;93.37;13.40;;;;;;;;;;4136455;34;20104;-62
2021/04/22 04:33:56;;;;;;;85.87;13.02;;;;;;;;;;4136156;34;20118;-63
2021/04/22 04:36:23;;;;;;;102.50;15.00;;;;;;;;;;4137578;34;20199;-65
2021/04/22 04:38:49;;;;;;;104.12;12.55;;;;;;;;;;4136209;34;20104;-65
2021/04/22 04:41:16;;;;;;;109.32;13.25;;;;;;;;;;4137373;34;20092;-64
2021/04/22 04:44:01;;;;;;;122.95;16.08;;;;;;;;;;4135488;34;20095;-64
2021/04/22 04:46:41;;;;;;;108.70;13.65;;;;;;;;;;4127135;34;20103;-62
2021/04/22 04:49:11;;;;;;;86.72;14.77;;;;;;;;;;4125638;34;20120;-65
2021/04/22 04:51:50;;;;;;;86.63;12.40;;;;;;;;;;4136936;34;20807;-65
2021/04/22 04:54:18;;;;;;;70.50;12.55;;;;;;;;;;4134746;34;20131;-66
2021/04/22 04:56:50;;;;;;;94.45;15.75;;;;;;;;;;4137054;34;20573;-66
2021/04/22 04:59:21;;;;;;;93.68;14.20;;;;;;;;;;4137157;34;20133;-64
2021/04/22 05:01:54;;;;;;;101.75;13.85;;;;;;;;;;4137189;34;20103;-62
2021/04/22 05:04:35;;;;;;;94.07;13.65;;;;;;;;;;4136438;34;20096;-65
2021/04/22 05:07:11;;;;;;;93.45;13.50;;;;;;;;;;4137075;34;20118;-64
2021/04/22 05:09:47;;;;;;;98.35;13.57;;;;;;;;;;4137293;34;20185;-62
2021/04/22 05:12:31;;;;;;;84.18;13.10;;;;;;;;;;4318318;29;20111;-64
2021/04/22 05:15:06;;;;;;;106.22;15.43;;;;;;;;;;4136966;34;20205;-64
2021/04/22 05:17:35;;;;;;;87.50;13.00;;;;;;;;;;4125000;34;20131;-64
2021/04/22 05:20:05;;;;;;;94.35;15.20;;;;;;;;;;4135829;34;20592;-65
2021/04/22 05:22:31;;;;;;;106.30;17.23;;;;;;;;;;4136348;34;20116;-64
2021/04/22 05:25:00;;;;;;;112.07;15.85;;;;;;;;;;4121900;34;20127;-64
2021/04/22 05:27:28;;;;;;;112.55;16.02;;;;;;;;;;4134689;34;20198;-64
2021/04/22 05:29:57;;;;;;;136.90;18.35;;;;;;;;;;4124215;34;20107;-63
2021/04/22 05:32:27;;;;;;;131.15;14.45;;;;;;;;;;4135657;34;20139;-64
2021/04/22 05:34:54;;;;;;;134.48;18.10;;;;;;;;;;4136644;34;20119;-63
2021/04/22 05:37:31;;;;;;;141.95;16.65;;;;;;;;;;4136793;34;20507;-64
2021/04/22 05:40:03;;;;;;;132.07;18.87;;;;;;;;;;4134991;34;20122;-61
2021/04/22 05:42:32;;;;;;;172.75;21.52;;;;;;;;;;4136107;34;20138;-64
2021/04/22 05:45:00;;;;;;;138.05;21.10;;;;;;;;;;4136244;34;20103;-61
2021/04/22 05:47:28;;;;;;;129.93;16.25;;;;;;;;;;4136307;34;20444;-65
2021/04/22 05:49:56;;;;;;;127.45;18.55;;;;;;;;;;4136348;34;20583;-63
2021/04/22 05:52:24;;;;;;;100.10;15.05;;;;;;;;;;4124734;34;20213;-61
2021/04/22 05:55:02;;;;;;;80.82;11.20;;;;;;;;;;4138853;34;20111;-64
2021/04/22 05:57:38;;;;;;;113.80;15.15;;;;;;;;;;4126259;34;20103;-64
2021/04/22 06:00:28;;;;;;;76.18;13.93;;;;;;;;;;4135718;34;20513;-61
2021/04/22 06:02:58;;;;;;;88.00;11.35;;;;;;;;;;4137655;34;20118;-65
2021/04/22 06:05:44;;;;;;;86.25;11.05;;;;;;;;;;4138586;34;20123;-63
2021/04/22 06:08:13;;;;;;;68.53;10.57;;;;;;;;;;4138761;34;20216;-64
2021/04/22 06:10:42;;;;;;;80.15;11.25;;;;;;;;;;4125195;34;20752;-65
2021/04/22 06:13:37;;;;;;;68.10;9.63;;;;;;;;;;4137747;34;20118;-64
2021/04/22 06:16:07;;;;;;;70.22;11.10;;;;;;;;;;4137588;34;20103;-63
2021/04/22 06:18:37;;;;;;;69.35;10.85;;;;;;;;;;4138157;34;20210;-64
2021/04/22 06:21:04;;;;;;;67.40;10.52;;;;;;;;;;4138115;34;20119;-64
2021/04/22 06:23:56;;;;;;;85.22;11.27;;;;;;;;;;4125858;34;20513;-63
2021/04/22 06:26:34;;;;;;;83.25;11.75;;;;;;;;;;4134298;34;20107;-65
2021/04/22 06:29:16;;;;;;;76.32;11.35;;;;;;;;;;4116879;34;20465;-64
2021/04/22 06:32:28;;;;;;;77.53;11.75;;;;;;;;;;4138864;34;20191;-64
2021/04/22 06:35:35;;;;;;;81.78;12.02;;;;;;;;;;4138044;34;20147;-64
2021/04/22 06:38:02;;;;;;;70.93;11.68;;;;;;;;;;4138261;34;20669;-64
2021/04/22 06:40:34;;;;;;;80.40;10.05;;;;;;;;;;4125728;34;20539;-65
2021/04/22 06:43:09;;;;;;;84.28;11.48;;;;;;;;;;4136783;34;20084;-65
2021/04/22 06:50:08;;;;;;;95.85;13.85;;;;;;;;;;4123188;34;20118;-65
2021/04/22 06:52:43;;;;;;;91.47;13.50;;;;;;;;;;4137021;34;20116;-65
2021/04/22 06:55:15;;;;;;;104.47;15.38;;;;;;;;;;4136890;34;20091;-65
2021/04/22 06:58:00;;;;;;;111.03;13.43;;;;;;;;;;4123478;34;20085;-63
2021/04/22 07:00:57;;;;;;;113.00;14.70;;;;;;;;;;4129827;34;20136;-65
2021/04/22 07:03:51;;;;;;;115.62;16.02;;;;;;;;;;4128123;34;20211;-65
2021/04/22 07:06:52;;;;;;;112.07;13.65;;;;;;;;;;4122947;34;20106;-65
2021/04/22 07:09:47;;;;;;;96.25;12.37;;;;;;;;;;4136629;34;20106;-65
2021/04/22 07:12:18;;;;;;;99.72;13.05;;;;;;;;;;4137879;34;20394;-63
2021/04/22 07:14:56;;;;;;;111.43;15.80;;;;;;;;;;4126196;34;20447;-65
2021/04/22 07:17:35;;;;;;;107.18;14.15;;;;;;;;;;4137077;34;20119;-63
2021/04/22 07:23:20;;;;;;;93.12;11.57;;;;;;;;;;4134781;34;20120;-66
2021/04/22 07:25:54;;;;;;;100.82;11.05;;;;;;;;;;4159222;29;20218;-66
2021/04/22 07:28:38;;;;;;;109.80;13.73;;;;;;;;;;4137927;34;20665;-65
2021/04/22 07:31:18;;;;;;;113.15;13.35;;;;;;;;;;4146594;34;20119;-64
2021/04/22 07:33:47;;;;;;;117.53;14.48;;;;;;;;;;4137414;34;20140;-65
2021/04/22 07:36:23;;;;;;;115.78;16.52;;;;;;;;;;4148997;34;20111;-62
2021/04/22 07:38:54;;;;;;;128.32;17.67;;;;;;;;;;4138262;34;20629;-63
2021/04/22 07:41:41;;;;;;;154.18;18.30;;;;;;;;;;4148838;34;20123;-64
2021/04/22 07:44:35;;;;;;;147.95;18.30;;;;;;;;;;4132454;34;20130;-62
2021/04/22 07:47:07;;;;;;;168.93;26.20;;;;;;;;;;4138749;34;20224;-63
2021/04/22 07:49:38;;;;;;;150.45;19.58;;;;;;;;;;4148984;34;20217;-65
2021/04/22 07:52:07;;;;;;;141.20;19.55;;;;;;;;;;4148708;34;20202;-65
2021/04/22 07:54:38;;;;;;;146.75;18.60;;;;;;;;;;4148790;34;20135;-63
2021/04/22 07:57:27;;;;;;;177.30;21.15;;;;;;;;;;4137654;34;20115;-65
2021/04/22 07:59:57;;;;;;;198.43;25.27;;;;;;;;;;4139112;34;20699;-64
2021/04/22 08:02:23;;;;;;;173.35;25.30;;;;;;;;;;4148258;34;20475;-63
2021/04/22 08:04:49;;;;;;;199.93;23.48;;;;;;;;;;4148238;34;20123;-65
2021/04/22 08:07:15;;;;;;;192.60;27.20;;;;;;;;;;4135006;34;20122;-62
2021/04/22 08:09:41;;;;;;;203.43;22.58;;;;;;;;;;4135168;34;20139;-62
2021/04/22 08:12:07;;;;;;;201.98;25.15;;;;;;;;;;4134740;34;20131;-63
2021/04/22 08:14:33;;;;;;;224.35;29.27;;;;;;;;;;4141352;34;20135;-63
2021/04/22 08:17:00;;;;;;;195.40;27.65;;;;;;;;;;4148354;34;20127;-65
2021/04/22 08:19:25;;;;;;;208.77;24.33;;;;;;;;;;4136957;34;20142;-65
2021/04/22 08:21:51;;;;;;;176.10;25.08;;;;;;;;;;4148043;34;20194;-63
2021/04/22 08:24:17;;;;;;;155.63;24.75;;;;;;;;;;4148223;34;20462;-64
2021/04/22 08:26:45;;;;;;;116.25;15.88;;;;;;;;;;4125477;34;20138;-63
2021/04/22 08:29:11;;;;;;;168.60;20.23;;;;;;;;;;4148151;34;20111;-65
2021/04/22 08:31:37;;;;;;;167.35;21.35;;;;;;;;;;4140922;34;20201;-62
2021/04/22 08:34:07;;;;;;;159.48;22.30;;;;;;;;;;4123460;34;20158;-63
2021/04/22 08:36:34;;;;;;;155.23;18.17;;;;;;;;;;4123777;34;20153;-64
2021/04/22 08:39:00;;;;;;;183.75;23.23;;;;;;;;;;4123504;34;20134;-65
2021/04/22 08:41:26;;;;;;;162.02;20.27;;;;;;;;;;4123394;34;20153;-65
2021/04/22 08:43:52;;;;;;;147.37;20.50;;;;;;;;;;4137464;34;20107;-64
2021/04/22 08:46:18;;;;;;;146.43;20.55;;;;;;;;;;4147840;34;20215;-65
2021/04/22 08:48:47;;;;;;;152.15;19.25;;;;;;;;;;4125635;34;20146;-64
2021/04/22 08:51:13;;;;;;;148.57;18.50;;;;;;;;;;4136523;34;20115;-65
2021/04/22 08:53:43;;;;;;;141.55;19.77;;;;;;;;;;4136722;34;20181;-65
2021/04/22 08:56:09;;;;;;;157.77;18.52;;;;;;;;;;4136734;34;20127;-63
2021/04/22 08:58:35;;;;;;;123.10;17.95;;;;;;;;;;4147991;34;20438;-64
2021/04/22 09:01:07;;;;;;;106.60;12.10;;;;;;;;;;4147662;34;20203;-64
2021/04/22 09:03:33;;;;;;;99.70;14.45;;;;;;;;;;4136641;34;20190;-63
2021/04/22 09:06:00;;;;;;;77.50;10.50;;;;;;;;;;4160619;34;20333;-63
2021/04/22 09:08:38;;;;;;;99.95;13.60;;;;;;;;;;4163685;34;20511;-62
2021/04/22 09:11:06;;;;;;;124.95;14.75;;;;;;;;;;4163558;34;20116;-66
2021/04/22 09:13:33;;;;;;;103.93;12.43;;;;;;;;;;4163381;34;20103;-65
2021/04/22 09:16:07;;;;;;;92.30;12.82;;;;;;;;;;4163477;34;20141;-65
2021/04/22 09:18:40;;;;;;;105.70;16.58;;;;;;;;;;4163451;34;20119;-63
2021/04/22 09:21:18;;;;;;;101.43;15.10;;;;;;;;;;4163678;34;20129;-63
2021/04/22 09:24:11;;;;;;;125.22;13.40;;;;;;;;;;4163456;34;20199;-62
2021/04/22 09:26:54;;;;;;;110.32;15.18;;;;;;;;;;4163614;34;20458;-62
2021/04/22 09:29:31;;;;;;;123.78;16.33;;;;;;;;;;4164209;34;20134;-65
2021/04/22 09:32:16;;;;;;;79.40;10.85;;;;;;;;;;4165380;34;20107;-62
2021/04/22 09:34:45;;;;;;;100.73;13.67;;;;;;;;;;4165710;34;20215;-62
2021/04/22 09:37:11;;;;;;;105.87;14.20;;;;;;;;;;4164165;34;20214;-63
2021/04/22 09:39:37;;;;;;;134.57;16.27;;;;;;;;;;4165692;34;20106;-63
2021/04/22 09:42:09;;;;;;;121.65;13.80;;;;;;;;;;4165512;34;20130;-65
2021/04/22 09:44:35;;;;;;;89.75;12.18;;;;;;;;;;4165265;34;20111;-63
2021/04/22 09:47:11;;;;;;;96.50;13.60;;;;;;;;;;4165453;34;20185;-63
2021/04/22 09:49:51;;;;;;;101.97;13.95;;;;;;;;;;4165382;34;20126;-64
2021/04/22 09:52:18;;;;;;;111.90;15.38;;;;;;;;;;4165468;34;20121;-64
2021/04/22 09:54:51;;;;;;;128.93;17.95;;;;;;;;;;4165418;34;20110;-62
2021/04/22 09:57:35;;;;;;;97.90;12.45;;;;;;;;;;4165521;34;20121;-62
2021/04/22 10:00:05;;;;;;;102.03;13.40;;;;;;;;;;4152724;34;20569;-65
2021/04/22 10:02:43;;;;;;;119.85;17.55;;;;;;;;;;4165078;34;20099;-65
2021/04/22 10:05:15;;;;;;;103.65;12.98;;;;;;;;;;4165420;34;20111;-65
2021/04/22 10:07:41;;;;;;;97.57;12.18;;;;;;;;;;4165168;34;20106;-64
2021/04/22 10:10:16;;;;;;;92.40;13.52;;;;;;;;;;4152840;34;20107;-65
2021/04/22 10:12:42;;;;;;;88.10;12.45;;;;;;;;;;4165013;34;20129;-63
2021/04/22 10:15:11;;;;;;;88.03;9.98;;;;;;;;;;4165071;34;20119;-65
2021/04/22 10:17:37;;;;;;;105.97;13.55;;;;;;;;;;4165355;34;20113;-63
2021/04/22 10:20:04;;;;;;;95.53;13.45;;;;;;;;;;4165067;34;20122;-62
2021/04/22 10:22:35;;;;;;;90.28;13.40;;;;;;;;;;4164836;34;20109;-64
2021/04/22 10:25:06;;;;;;;69.10;9.45;;;;;;;;;;4163735;34;20122;-64
2021/04/22 10:27:32;;;;;;;64.10;9.50;;;;;;;;;;4164954;34;20185;-63
2021/04/22 10:29:58;;;;;;;98.47;11.40;;;;;;;;;;4163658;34;20102;-63
2021/04/22 10:32:25;;;;;;;81.05;10.73;;;;;;;;;;4164958;34;20107;-65
2021/04/22 10:34:51;;;;;;;63.30;10.85;;;;;;;;;;4165139;34;20103;-64
2021/04/22 10:37:19;;;;;;;66.28;10.13;;;;;;;;;;4163456;34;20110;-63
2021/04/22 10:39:45;;;;;;;74.97;10.63;;;;;;;;;;4165076;34;20160;-65
2021/04/22 10:42:11;;;;;;;50.78;7.28;;;;;;;;;;4164854;34;20130;-65
2021/04/22 10:44:38;;;;;;;67.12;9.27;;;;;;;;;;4163457;34;20143;-63
2021/04/22 10:47:05;;;;;;;75.07;9.50;;;;;;;;;;4164654;34;20102;-64
2021/04/22 10:49:31;;;;;;;62.92;8.32;;;;;;;;;;4164859;34;20125;-67
2021/04/22 10:51:57;;;;;;;73.20;9.02;;;;;;;;;;4164890;34;20528;-62
2021/04/22 10:54:23;;;;;;;66.50;9.40;;;;;;;;;;4164563;34;20122;-65
2021/04/22 10:57:06;;;;;;;47.10;7.75;;;;;;;;;;4151926;34;20138;-63
2021/04/22 10:59:33;;;;;;;53.60;8.15;;;;;;;;;;4163445;34;20462;-63
2021/04/22 11:02:09;;;;;;;70.65;11.20;;;;;;;;;;4163446;34;20195;-66
2021/04/22 11:04:35;;;;;;;59.47;9.75;;;;;;;;;;4163505;34;20122;-64
2021/04/22 11:07:11;;;;;;;83.00;11.20;;;;;;;;;;4152042;34;20494;-64
2021/04/22 11:09:38;;;;;;;61.42;9.25;;;;;;;;;;4163638;34;20115;-64
2021/04/22 11:12:04;;;;;;;50.55;6.85;;;;;;;;;;4151791;34;20222;-67
2021/04/22 11:14:43;;;;;;;53.60;8.68;;;;;;;;;;4164326;34;20095;-65
2021/04/22 11:17:10;;;;;;;64.87;9.10;;;;;;;;;;4164412;34;20110;-63
2021/04/22 11:19:43;;;;;;;56.08;8.35;;;;;;;;;;4164660;34;20099;-65
2021/04/22 11:22:15;;;;;;;55.25;7.25;;;;;;;;;;4164593;34;20161;-63
2021/04/22 11:24:56;;;;;;;53.17;8.35;;;;;;;;;;4164377;34;20200;-65
2021/04/22 11:27:23;;;;;;;67.53;9.65;;;;;;;;;;4162993;34;20548;-63
2021/04/22 11:29:50;;;;;;;43.67;8.95;;;;;;;;;;4164343;34;20512;-65
2021/04/22 11:32:17;;;;;;;47.45;8.10;;;;;;;;;;4164697;34;20138;-65
2021/04/22 11:34:43;;;;;;;34.38;8.10;;;;;;;;;;4164265;34;20553;-65
2021/04/22 11:37:14;;;;;;;45.83;7.18;;;;;;;;;;4164166;34;20114;-66
2021/04/22 11:39:40;;;;;;;45.00;7.55;;;;;;;;;;4164275;34;20598;-65
2021/04/22 11:42:06;;;;;;;46.95;7.25;;;;;;;;;;4151779;34;20122;-65
2021/04/22 11:44:49;;;;;;;61.92;8.90;;;;;;;;;;4164047;34;20534;-65
2021/04/22 11:47:19;;;;;;;47.62;7.40;;;;;;;;;;4151622;34;20126;-66
2021/04/22 11:49:47;;;;;;;45.85;7.18;;;;;;;;;;4163536;34;20114;-65
2021/04/22 11:52:15;;;;;;;56.42;8.18;;;;;;;;;;4151834;34;20111;-66
2021/04/22 11:54:43;;;;;;;34.80;5.60;;;;;;;;;;4164371;34;20544;-65
2021/04/22 11:57:17;;;;;;;49.78;9.15;;;;;;;;;;4152044;34;20454;-65
2021/04/22 11:59:51;;;;;;;60.00;8.63;;;;;;;;;;4164574;34;20130;-64
2021/04/22 12:02:22;;;;;;;46.00;8.75;;;;;;;;;;4153125;34;20118;-64
2021/04/22 12:04:50;;;;;;;44.63;7.47;;;;;;;;;;4163130;34;20514;-65
2021/04/22 12:07:18;;;;;;;44.30;8.55;;;;;;;;;;4164360;34;20174;-65
2021/04/22 12:09:51;;;;;;;60.75;9.95;;;;;;;;;;4163058;34;21113;-63
2021/04/22 12:12:23;;;;;;;79.82;9.63;;;;;;;;;;4162929;34;20137;-65
2021/04/22 12:14:54;;;;;;;59.67;10.93;;;;;;;;;;4164274;34;20211;-66
2021/04/22 12:17:33;;;;;;;76.55;10.93;;;;;;;;;;4149976;34;20530;-63
2021/04/22 12:20:06;;;;;;;73.45;12.25;;;;;;;;;;4163964;34;20102;-65
2021/04/22 12:22:41;;;;;;;73.43;11.00;;;;;;;;;;4163919;34;20125;-66
2021/04/22 12:25:11;;;;;;;83.07;10.80;;;;;;;;;;4164135;34;20178;-65
2021/04/22 12:27:43;;;;;;;101.62;9.88;;;;;;;;;;4162348;34;20117;-66
2021/04/22 12:30:16;;;;;;;82.93;13.23;;;;;;;;;;4162982;34;20113;-64
2021/04/22 12:32:49;;;;;;;82.37;12.13;;;;;;;;;;4163796;34;20534;-63
2021/04/22 12:35:19;;;;;;;93.70;10.43;;;;;;;;;;4163942;34;20526;-64
2021/04/22 12:37:51;;;;;;;70.15;9.52;;;;;;;;;;4163940;34;20134;-65
2021/04/22 12:40:17;;;;;;;84.93;12.05;;;;;;;;;;4151666;34;20121;-66
2021/04/22 12:42:44;;;;;;;92.40;12.45;;;;;;;;;;4163995;34;20337;-68
2021/04/22 12:45:17;;;;;;;54.70;9.27;;;;;;;;;;4151691;34;20225;-68
2021/04/22 12:48:09;;;;;;;82.40;10.18;;;;;;;;;;4164101;34;20107;-65
2021/04/22 12:50:42;;;;;;;83.43;12.15;;;;;;;;;;4162467;34;20621;-65
2021/04/22 12:53:11;;;;;;;74.57;10.98;;;;;;;;;;4163719;34;20432;-66
2021/04/22 12:55:41;;;;;;;109.37;13.62;;;;;;;;;;4163643;34;20095;-65
2021/04/22 12:58:08;;;;;;;88.20;14.18;;;;;;;;;;4163943;34;20510;-64
2021/04/22 13:00:37;;;;;;;52.70;8.18;;;;;;;;;;4163733;34;20120;-64
2021/04/22 13:03:16;;;;;;;83.55;10.95;;;;;;;;;;4162639;34;20513;-63
2021/04/22 13:05:45;;;;;;;84.90;9.63;;;;;;;;;;4162407;34;20816;-65
2021/04/22 13:08:19;;;;;;;86.00;11.63;;;;;;;;;;4162552;34;20218;-66
2021/04/22 13:10:45;;;;;;;107.75;12.25;;;;;;;;;;4161311;34;20121;-65
2021/04/22 13:13:12;;;;;;;92.50;12.02;;;;;;;;;;4162269;34;20120;-64
2021/04/22 13:15:38;;;;;;;92.75;11.30;;;;;;;;;;4163475;34;20111;-67
2021/04/22 13:18:12;;;;;;;119.80;17.50;;;;;;;;;;4163533;34;20533;-65
2021/04/22 13:20:43;;;;;;;86.50;10.45;;;;;;;;;;4163460;34;20157;-65
2021/04/22 13:23:09;;;;;;;98.32;15.30;;;;;;;;;;4151118;34;20119;-65
2021/04/22 13:25:36;;;;;;;90.55;11.38;;;;;;;;;;4163502;34;20127;-65
2021/04/22 13:28:11;;;;;;;89.65;11.52;;;;;;;;;;4161980;34;20119;-66
2021/04/22 13:30:37;;;;;;;77.47;10.52;;;;;;;;;;4163294;34;20529;-65
2021/04/22 13:33:08;;;;;;;77.47;11.23;;;;;;;;;;4163734;34;20439;-66
2021/04/22 13:35:35;;;;;;;85.03;11.60;;;;;;;;;;4163134;34;20114;-63
2021/04/22 13:38:18;;;;;;;98.55;14.00;;;;;;;;;;4163652;34;20131;-64
2021/04/22 13:40:44;;;;;;;97.75;15.38;;;;;;;;;;4163216;34;20126;-64
2021/04/22 13:43:10;;;;;;;104.10;15.85;;;;;;;;;;4163308;34;20539;-68
2021/04/22 13:45:37;;;;;;;84.45;14.43;;;;;;;;;;4161751;34;20214;-63
2021/04/22 13:48:30;;;;;;;86.30;12.43;;;;;;;;;;4163496;34;20157;-66
2021/04/22 13:51:07;;;;;;;90.55;14.38;;;;;;;;;;4149550;34;20102;-65
2021/04/22 13:53:33;;;;;;;92.35;13.45;;;;;;;;;;4150664;34;20134;-64
2021/04/22 13:55:59;;;;;;;88.10;12.93;;;;;;;;;;4163041;34;20218;-64
2021/04/22 13:58:35;;;;;;;79.53;12.65;;;;;;;;;;4163190;34;20134;-64
2021/04/22 14:01:02;;;;;;;98.20;14.70;;;;;;;;;;4163286;34;20432;-65
2021/04/22 14:03:34;;;;;;;88.25;13.88;;;;;;;;;;4163019;34;20115;-65
2021/04/22 14:06:02;;;;;;;76.30;12.13;;;;;;;;;;4162911;34;20198;-65
2021/04/22 14:08:32;;;;;;;82.53;12.27;;;;;;;;;;4163212;34;20095;-66
2021/04/22 14:11:00;;;;;;;90.85;13.70;;;;;;;;;;4163024;34;20119;-65
2021/04/22 14:13:26;;;;;;;104.18;12.98;;;;;;;;;;4163928;34;20111;-66
2021/04/22 14:15:56;;;;;;;90.12;15.43;;;;;;;;;;4165018;34;20119;-66
2021/04/22 14:18:22;;;;;;;76.55;10.40;;;;;;;;;;4165280;34;20111;-66
2021/04/22 14:20:48;;;;;;;77.47;13.27;;;;;;;;;;4152328;34;20121;-65
2021/04/22 14:23:36;;;;;;;72.47;11.75;;;;;;;;;;4165405;34;20173;-64
2021/04/22 14:26:31;;;;;;;82.07;13.25;;;;;;;;;;4161632;34;20163;-63
2021/04/22 14:29:11;;;;;;;82.15;12.15;;;;;;;;;;4155410;34;20114;-64
2021/04/22 14:31:59;;;;;;;74.20;12.20;;;;;;;;;;4165379;34;20133;-66
2021/04/22 14:34:26;;;;;;;98.18;13.40;;;;;;;;;;4163926;34;20122;-65
2021/04/22 14:36:52;;;;;;;106.40;15.35;;;;;;;;;;4165319;34;20570;-64
2021/04/22 14:39:23;;;;;;;108.63;15.18;;;;;;;;;;4164023;34;20443;-65
2021/04/22 14:41:50;;;;;;;95.30;14.18;;;;;;;;;;4157186;34;20134;-64
2021/04/22 14:44:16;;;;;;;79.80;12.73;;;;;;;;;;4158430;34;20086;-65
2021/04/22 14:46:42;;;;;;;90.55;15.45;;;;;;;;;;4164958;34;20536;-64
2021/04/22 14:49:09;;;;;;;89.40;12.73;;;;;;;;;;4153070;34;20118;-63
2021/04/22 14:51:36;;;;;;;96.65;13.52;;;;;;;;;;4151121;34;20523;-65
2021/04/22 14:54:03;;;;;;;83.93;15.10;;;;;;;;;;4151164;34;20173;-62
2021/04/22 14:56:29;;;;;;;90.12;15.93;;;;;;;;;;4155125;34;20465;-65
2021/04/22 14:58:54;;;;;;;97.97;13.80;;;;;;;;;;4164962;34;20514;-65
2021/04/22 15:01:20;;;;;;;81.97;12.60;;;;;;;;;;4164752;34;20198;-62
2021/04/22 15:03:46;;;;;;;88.10;13.25;;;;;;;;;;4164970;34;20121;-64
2021/04/22 15:06:12;;;;;;;88.32;13.75;;;;;;;;;;4164764;34;20542;-63
2021/04/22 15:08:38;;;;;;;96.70;12.50;;;;;;;;;;4164663;34;20138;-64
2021/04/22 15:11:04;;;;;;;92.75;13.40;;;;;;;;;;4163294;34;20554;-64
2021/04/22 15:13:35;;;;;;;98.78;15.00;;;;;;;;;;4161372;34;20510;-64
2021/04/22 15:16:01;;;;;;;91.75;17.40;;;;;;;;;;4151235;34;20192;-66
2021/04/22 15:18:27;;;;;;;120.65;16.23;;;;;;;;;;4151032;34;20111;-66
2021/04/22 15:20:54;;;;;;;96.60;14.75;;;;;;;;;;4151016;34;20543;-66